Time;durP1;ratioP1;P1;durP2;ratioP2;P2;SDS_P1;SDS_P2;PMS_P1;PMS_P2;Temp;Humidity;BMP_temperature;BMP_pressure;BME280_temperature;BME280_humidity;BME280_pressure;Samples;Min_cycle;Max_cycle;Signal;HPM_P1;HPM_P2
2021/05/10 00:02:35;;;;;;;10.65;5.75;;;;;;;14.17;52.10;100031.88;1852345;77;22418;-66
2021/05/10 00:05:14;;;;;;;7.47;3.70;;;;;;;14.11;52.15;100027.30;1815817;77;23078;-68
2021/05/10 00:07:52;;;;;;;8.05;3.52;;;;;;;14.05;52.24;100024.09;1852651;77;22465;-66
2021/05/10 00:10:32;;;;;;;5.50;2.60;;;;;;;13.96;52.50;100032.01;1852417;77;22910;-66
2021/05/10 00:13:15;;;;;;;11.03;3.85;;;;;;;14.00;52.34;100031.93;1816018;77;23092;-66
2021/05/10 00:15:53;;;;;;;9.28;3.55;;;;;;;13.96;52.40;100021.28;1852570;77;22414;-68
2021/05/10 00:18:31;;;;;;;7.10;3.72;;;;;;;13.90;52.44;100016.70;1815850;77;22383;-68
2021/05/10 00:21:10;;;;;;;9.15;4.08;;;;;;;13.88;52.52;100025.47;1852462;77;22296;-68
2021/05/10 00:23:50;;;;;;;9.35;3.33;;;;;;;13.83;52.58;100023.89;1815885;77;22543;-66
2021/05/10 00:26:29;;;;;;;6.37;3.60;;;;;;;13.78;52.66;100025.02;1816168;77;22509;-68
2021/05/10 00:29:08;;;;;;;7.95;3.52;;;;;;;13.68;52.73;100021.89;1811327;77;22480;-68
2021/05/10 00:31:47;;;;;;;13.40;2.85;;;;;;;13.57;52.81;100023.79;1815937;77;22446;-66
2021/05/10 00:34:26;;;;;;;7.55;3.80;;;;;;;13.51;52.89;100027.56;1852540;77;22427;-66
2021/05/10 00:37:04;;;;;;;8.30;4.20;;;;;;;13.44;53.00;100024.55;1816023;77;22549;-68
2021/05/10 00:39:49;;;;;;;8.83;4.15;;;;;;;13.38;53.09;100025.32;1780657;79;22591;-68
2021/05/10 00:42:28;;;;;;;9.60;4.75;;;;;;;13.34;53.17;100023.55;1811484;78;22424;-66
2021/05/10 00:45:08;;;;;;;8.25;4.60;;;;;;;13.28;53.28;100031.55;1852532;77;22337;-66
2021/05/10 00:47:49;;;;;;;8.05;3.40;;;;;;;13.26;53.37;100033.09;1811060;78;22619;-66
2021/05/10 00:50:27;;;;;;;10.93;4.85;;;;;;;13.22;53.43;100029.16;1852545;77;22538;-68
2021/05/10 00:53:13;;;;;;;9.23;3.65;;;;;;;13.17;53.53;100031.58;1852316;77;23048;-68
2021/05/10 00:55:51;;;;;;;8.80;4.62;;;;;;;13.11;53.60;100029.69;1816083;77;22550;-66
2021/05/10 00:58:31;;;;;;;7.92;4.37;;;;;;;13.08;53.70;100028.72;1814723;77;22584;-68
2021/05/10 01:01:11;;;;;;;13.05;6.05;;;;;;;13.04;53.78;100026.11;1815993;77;22494;-66
2021/05/10 01:03:51;;;;;;;19.02;7.25;;;;;;;13.01;53.89;100025.16;1815822;77;22485;-66
2021/05/10 01:06:37;;;;;;;10.08;5.42;;;;;;;12.96;53.96;100028.92;1811221;78;23167;-68
2021/05/10 01:09:16;;;;;;;17.48;8.48;;;;;;;12.90;54.02;100025.69;1815594;77;22537;-68
2021/05/10 01:11:55;;;;;;;17.40;8.15;;;;;;;12.84;54.11;100032.63;1816052;77;22468;-66
2021/05/10 01:14:40;;;;;;;21.75;8.60;;;;;;;12.81;54.19;100026.83;1811060;78;23074;-68
2021/05/10 01:17:19;;;;;;;21.93;8.03;;;;;;;12.76;54.26;100020.74;1852337;77;22480;-66
2021/05/10 01:20:07;;;;;;;23.65;8.60;;;;;;;12.70;54.35;100022.03;1852424;77;22397;-68
2021/05/10 01:22:51;;;;;;;22.45;9.15;;;;;;;12.64;54.43;100026.79;1816230;77;22479;-68
2021/05/10 01:25:31;;;;;;;22.90;9.40;;;;;;;12.59;54.51;100027.89;1811512;78;22811;-66
2021/05/10 01:28:10;;;;;;;16.37;7.65;;;;;;;12.53;54.61;100028.96;1816018;77;22415;-66
2021/05/10 01:30:50;;;;;;;14.00;6.65;;;;;;;12.50;54.67;100024.00;1815931;77;22271;-66
2021/05/10 01:33:30;;;;;;;15.85;6.87;;;;;;;12.43;54.74;100022.28;1815720;77;22429;-66
2021/05/10 01:36:09;;;;;;;23.02;10.35;;;;;;;12.37;54.82;100020.37;1815899;77;22649;-66
2021/05/10 01:38:55;;;;;;;32.67;15.23;;;;;;;12.30;54.89;100020.31;1852232;77;22395;-68
2021/05/10 01:41:34;;;;;;;80.22;36.45;;;;;;;12.25;54.94;100014.70;1811434;77;22388;-66
2021/05/10 01:44:13;;;;;;;16.30;7.10;;;;;;;12.20;55.00;100021.14;1815928;77;22404;-68
2021/05/10 01:46:51;;;;;;;29.82;12.07;;;;;;;12.14;55.13;100019.20;1816043;77;22588;-66
2021/05/10 01:49:30;;;;;;;9.55;4.15;;;;;;;12.06;55.20;100019.34;1815766;77;22378;-66
2021/05/10 01:52:09;;;;;;;11.68;4.00;;;;;;;12.02;55.28;100018.05;1852560;77;22320;-66
2021/05/10 01:54:51;;;;;;;16.77;7.53;;;;;;;11.98;55.37;100012.76;1811117;77;22519;-66
2021/05/10 01:57:29;;;;;;;24.27;9.50;;;;;;;11.91;55.45;100006.52;1811447;77;22976;-65
2021/05/10 02:00:11;;;;;;;16.42;6.67;;;;;;;11.84;55.54;100001.59;1815948;77;22480;-65
2021/05/10 02:03:06;;;;;;;23.22;8.75;;;;;;;11.76;55.63;99999.02;1852266;77;22423;-68
2021/05/10 02:05:45;;;;;;;8.70;4.33;;;;;;;11.67;55.73;100008.97;1811271;78;23034;-65
2021/05/10 02:08:25;;;;;;;9.18;4.35;;;;;;;11.54;55.84;100002.94;1816029;77;22473;-68
2021/05/10 02:11:11;;;;;;;6.60;3.20;;;;;;;11.47;55.95;99998.52;1852270;77;22789;-68
2021/05/10 02:13:50;;;;;;;4.53;2.92;;;;;;;11.37;56.07;100005.48;1815985;77;22432;-65
2021/05/10 02:16:34;;;;;;;9.43;3.37;;;;;;;11.25;56.24;100008.31;1852400;77;22319;-68
2021/05/10 02:19:13;;;;;;;10.38;4.15;;;;;;;11.14;56.38;100004.75;1816127;77;22495;-65
2021/05/10 02:21:51;;;;;;;8.85;4.92;;;;;;;11.01;56.51;99997.36;1816209;77;22592;-68
2021/05/10 02:24:30;;;;;;;7.25;4.28;;;;;;;10.90;56.67;100005.01;1815993;77;22489;-65
2021/05/10 02:27:08;;;;;;;10.15;5.03;;;;;;;10.80;56.81;99999.11;1852396;77;22315;-67
2021/05/10 02:29:50;;;;;;;7.53;4.45;;;;;;;10.72;56.99;99997.84;1815590;77;22536;-65
2021/05/10 02:32:28;;;;;;;9.28;4.75;;;;;;;10.77;57.12;99998.11;1816108;77;21809;-66
2021/05/10 02:35:07;;;;;;;7.53;4.78;;;;;;;10.77;57.19;99996.77;1811321;78;22615;-67
2021/05/10 02:37:46;;;;;;;9.68;4.03;;;;;;;10.84;57.26;99997.70;1815946;77;22307;-68
2021/05/10 02:40:25;;;;;;;10.53;4.03;;;;;;;10.96;57.34;99994.93;1815990;77;22639;-66
2021/05/10 02:43:04;;;;;;;9.05;4.15;;;;;;;11.09;57.36;99995.13;1815707;77;22426;-65
2021/05/10 02:45:43;;;;;;;8.80;4.67;;;;;;;11.13;57.36;99992.41;1815585;77;22525;-65
2021/05/10 02:48:24;;;;;;;9.15;4.35;;;;;;;11.18;57.39;99994.04;1815640;77;22354;-65
2021/05/10 02:51:03;;;;;;;13.40;6.72;;;;;;;11.22;57.41;99994.00;1852720;77;22378;-65
2021/05/10 02:53:42;;;;;;;15.18;5.47;;;;;;;11.29;57.40;99992.25;1811324;77;22234;-65
2021/05/10 02:56:21;;;;;;;10.93;4.08;;;;;;;11.32;57.41;99998.55;1811366;77;23273;-65
2021/05/10 02:59:00;;;;;;;6.62;4.20;;;;;;;11.35;57.42;99987.50;1815817;77;22163;-65
2021/05/10 03:01:38;;;;;;;8.23;3.35;;;;;;;11.41;57.41;99988.59;1816018;77;22591;-65
2021/05/10 03:04:18;;;;;;;6.92;3.83;;;;;;;11.48;57.41;99982.83;1852583;77;22466;-65
2021/05/10 03:06:56;;;;;;;6.65;3.90;;;;;;;11.57;57.34;99974.22;1816073;77;22436;-66
2021/05/10 03:09:36;;;;;;;7.78;3.70;;;;;;;11.63;57.33;99973.47;1811504;77;22554;-65
2021/05/10 03:12:15;;;;;;;7.78;4.00;;;;;;;11.66;57.28;99966.41;1815976;77;22357;-65
2021/05/10 03:14:55;;;;;;;6.62;3.65;;;;;;;11.76;57.19;99965.63;1815846;77;22409;-66
2021/05/10 03:17:34;;;;;;;9.25;4.50;;;;;;;11.81;57.13;99965.91;1816127;77;22680;-66
2021/05/10 03:20:15;;;;;;;10.93;4.35;;;;;;;11.86;57.05;99960.81;1815788;77;22598;-68
2021/05/10 03:22:56;;;;;;;8.73;3.80;;;;;;;11.87;56.98;99959.80;1811390;78;22181;-66
2021/05/10 03:25:36;;;;;;;7.55;4.05;;;;;;;11.96;56.95;99958.69;1815904;77;22631;-69
2021/05/10 03:28:14;;;;;;;6.97;3.75;;;;;;;12.01;56.82;99954.92;1815881;77;22357;-65
2021/05/10 03:30:54;;;;;;;6.92;3.85;;;;;;;12.02;56.74;99960.59;1852550;77;22477;-68
2021/05/10 03:33:33;;;;;;;5.30;3.47;;;;;;;12.06;56.68;99963.71;1815828;77;22531;-66
2021/05/10 03:36:12;;;;;;;10.68;4.45;;;;;;;12.08;56.59;99959.82;1812554;77;22191;-68
2021/05/10 03:38:50;;;;;;;8.68;3.87;;;;;;;12.16;56.51;99953.02;1852484;77;22161;-65
2021/05/10 03:41:30;;;;;;;13.38;3.87;;;;;;;12.20;56.43;99956.14;1815744;77;22585;-65
2021/05/10 03:44:10;;;;;;;7.35;3.87;;;;;;;12.21;56.35;99957.27;1815673;77;22211;-65
2021/05/10 03:46:48;;;;;;;8.58;3.83;;;;;;;12.26;56.28;99952.19;1816115;77;23100;-65
2021/05/10 03:49:33;;;;;;;5.80;3.83;;;;;;;12.44;56.28;99955.75;1852374;77;22626;-68
2021/05/10 03:52:12;;;;;;;5.92;2.65;;;;;;;13.34;56.43;99955.25;1852520;77;22416;-66
2021/05/10 03:54:52;;;;;;;11.20;4.00;;;;;;;14.10;55.93;99956.45;1815620;77;22461;-66
2021/05/10 03:57:31;;;;;;;5.28;3.33;;;;;;;15.10;55.56;99957.59;1815967;77;22527;-69
2021/05/10 04:00:12;;;;;;;8.18;4.08;;;;;;;16.23;54.84;99952.38;1811246;78;23224;-69
2021/05/10 04:02:59;;;;;;;5.40;3.30;;;;;;;16.99;53.85;99947.62;1836581;77;28503;-69
2021/05/10 04:13:35;;;;;;;6.85;3.47;;;;;;;18.82;50.32;99948.11;1815908;77;22480;-66
2021/05/10 04:14:11;;;;;;;10.35;4.42;;;;;;;19.17;49.29;99941.34;1811278;78;22659;-69
2021/05/10 04:17:10;;;;;;;8.80;3.12;;;;;;;19.43;48.27;99943.55;1852371;77;22716;-67
2021/05/10 04:19:49;;;;;;;10.43;4.15;;;;;;;19.37;47.10;99941.24;1811142;78;23994;-69
2021/05/10 04:22:28;;;;;;;5.85;3.55;;;;;;;19.73;46.53;99939.30;1815906;77;22623;-69
2021/05/10 04:25:14;;;;;;;7.37;3.90;;;;;;;20.03;45.56;99939.05;1852310;77;22347;-69
2021/05/10 04:27:53;;;;;;;11.08;6.33;;;;;;;20.32;44.85;99940.17;1852616;77;22361;-70
2021/05/10 04:30:32;;;;;;;10.23;5.20;;;;;;;21.08;44.48;99948.14;1811261;77;22686;-67
2021/05/10 04:33:11;;;;;;;5.83;3.45;;;;;;;21.19;43.52;99951.84;1809105;77;22451;-69
2021/05/10 04:35:56;;;;;;;5.80;3.22;;;;;;;20.58;42.34;99943.31;1852441;77;22675;-69
2021/05/10 04:38:40;;;;;;;7.85;4.50;;;;;;;20.34;41.77;99945.33;1815837;77;22370;-67
2021/05/10 04:41:16;;;;;;;5.78;3.58;;;;;;;20.52;41.54;99951.05;1816073;77;22357;-67
2021/05/10 04:44:02;;;;;;;9.33;5.03;;;;;;;20.52;40.64;99948.34;1852352;77;22656;-67
2021/05/10 04:46:40;;;;;;;12.93;5.15;;;;;;;20.06;40.25;99952.92;1816129;77;22533;-67
2021/05/10 04:49:19;;;;;;;11.55;4.45;;;;;;;19.44;40.64;99957.38;1815891;77;22497;-67
2021/05/10 04:51:58;;;;;;;10.38;3.72;;;;;;;19.10;41.17;99960.91;1852633;77;22340;-70
2021/05/10 04:54:37;;;;;;;7.10;3.65;;;;;;;18.92;41.43;99951.05;1811191;78;22524;-68
2021/05/10 04:57:16;;;;;;;7.55;4.03;;;;;;;18.38;41.72;99948.89;1816000;77;22311;-70
2021/05/10 04:59:55;;;;;;;7.25;3.80;;;;;;;17.82;42.10;99952.52;1815923;77;22354;-70
2021/05/10 05:02:34;;;;;;;8.40;4.12;;;;;;;17.82;42.31;99952.52;1815994;77;22454;-70
2021/05/10 05:05:13;;;;;;;7.70;4.28;;;;;;;18.27;42.50;99949.68;1816039;77;22411;-69
2021/05/10 05:07:52;;;;;;;11.45;4.47;;;;;;;18.38;42.41;99944.84;1800490;77;27871;-69
2021/05/10 05:10:30;;;;;;;6.37;3.33;;;;;;;18.58;42.22;99942.39;1811166;78;23399;-70
2021/05/10 05:13:09;;;;;;;7.22;3.85;;;;;;;18.39;42.02;99946.50;1815874;77;22704;-69
2021/05/10 05:15:48;;;;;;;9.73;3.52;;;;;;;18.19;42.08;99945.95;1852604;77;22470;-69
2021/05/10 05:18:27;;;;;;;6.83;3.87;;;;;;;18.08;42.18;99948.11;1816134;77;22373;-70
2021/05/10 05:21:05;;;;;;;5.12;3.35;;;;;;;18.27;42.29;99941.58;1841380;77;22479;-69
2021/05/10 05:23:45;;;;;;;6.35;3.17;;;;;;;18.02;42.08;99946.83;1832064;77;23039;-70
2021/05/10 05:26:24;;;;;;;10.25;4.30;;;;;;;18.26;42.25;99952.63;1815706;77;22157;-70
2021/05/10 05:29:03;;;;;;;8.98;2.62;;;;;;;18.58;42.30;99946.45;1801803;77;22806;-67
2021/05/10 05:31:42;;;;;;;6.90;2.50;;;;;;;18.82;42.23;99953.52;1834782;77;23109;-70
2021/05/10 05:34:27;;;;;;;4.60;2.90;;;;;;;18.94;42.13;99948.92;1852317;77;22561;-67
2021/05/10 05:37:06;;;;;;;4.45;2.98;;;;;;;18.95;42.00;99949.22;1815712;77;22172;-70
2021/05/10 05:39:45;;;;;;;3.85;2.50;;;;;;;18.97;41.95;99955.20;1815677;77;22422;-70
2021/05/10 05:42:24;;;;;;;8.20;3.25;;;;;;;19.25;42.00;99953.13;1816087;77;22455;-67
2021/05/10 05:45:03;;;;;;;13.53;3.67;;;;;;;19.37;41.93;99941.24;1811306;78;22315;-70
2021/05/10 05:47:44;;;;;;;6.83;2.67;;;;;;;19.66;41.88;99938.62;1810852;78;22595;-70
2021/05/10 05:50:23;;;;;;;4.10;2.95;;;;;;;19.53;41.46;99929.43;1852360;77;22108;-67
2021/05/10 05:53:02;;;;;;;4.67;2.60;;;;;;;18.91;41.19;99937.23;1815921;77;22513;-70
2021/05/10 05:55:41;;;;;;;5.55;3.27;;;;;;;18.77;41.05;99940.70;1815877;77;22287;-71
2021/05/10 05:58:20;;;;;;;10.93;2.20;;;;;;;19.04;41.08;99945.09;1852628;77;22680;-68
2021/05/10 06:00:59;;;;;;;8.43;3.08;;;;;;;19.34;40.85;99948.48;1815803;77;22954;-70
2021/05/10 06:03:39;;;;;;;9.40;5.03;;;;;;;19.21;40.50;99947.92;1852525;77;22799;-70
2021/05/10 06:06:18;;;;;;;19.20;12.50;;;;;;;19.16;40.38;99945.92;1852410;77;22926;-70
2021/05/10 06:08:58;;;;;;;5.20;2.65;;;;;;;18.92;40.26;99953.75;1852669;77;22319;-70
2021/05/10 06:11:38;;;;;;;4.50;2.25;;;;;;;18.72;40.10;99942.44;1815880;77;22866;-70
2021/05/10 06:14:17;;;;;;;5.60;2.33;;;;;;;18.72;40.13;99945.14;1852521;77;22363;-70
2021/05/10 06:16:57;;;;;;;3.92;2.33;;;;;;;18.68;39.90;99943.98;1815553;77;22448;-70
2021/05/10 06:19:36;;;;;;;8.40;3.50;;;;;;;18.80;40.05;99937.52;1811353;78;22434;-70
2021/05/10 06:22:22;;;;;;;12.20;4.08;;;;;;;19.12;40.06;99929.88;1852449;77;22256;-68
2021/05/10 06:25:01;;;;;;;3.60;2.30;;;;;;;19.41;39.99;99927.58;1815813;77;22363;-70
2021/05/10 06:27:46;;;;;;;5.78;2.87;;;;;;;19.56;39.87;99935.19;1852407;77;22245;-70
2021/05/10 06:30:25;;;;;;;6.05;2.10;;;;;;;19.76;39.81;99934.23;1811715;78;22371;-70
2021/05/10 06:33:04;;;;;;;3.50;2.02;;;;;;;19.94;39.59;99934.57;1815879;77;22434;-70
2021/05/10 06:35:44;;;;;;;2.87;2.10;;;;;;;19.93;39.39;99927.50;1811173;78;22466;-70
2021/05/10 06:38:23;;;;;;;4.35;2.15;;;;;;;19.85;39.20;99938.70;1816145;77;22200;-70
2021/05/10 06:41:02;;;;;;;4.35;2.12;;;;;;;19.74;39.02;99925.52;1815507;77;22408;-70
2021/05/10 06:43:40;;;;;;;5.05;2.25;;;;;;;19.44;38.79;99927.09;1816170;77;22672;-70
2021/05/10 06:46:20;;;;;;;7.15;2.92;;;;;;;19.39;38.95;99931.00;1852497;77;22514;-70
2021/05/10 06:48:59;;;;;;;6.85;3.02;;;;;;;19.15;38.90;99934.80;1811408;78;22679;-70
2021/05/10 06:51:44;;;;;;;8.25;2.92;;;;;;;19.12;39.03;99937.98;1852520;77;22230;-70
2021/05/10 06:54:23;;;;;;;3.75;2.30;;;;;;;19.31;39.08;99941.38;1852562;77;22218;-70
2021/05/10 06:57:02;;;;;;;4.87;2.33;;;;;;;19.57;39.16;99930.56;1815815;77;22525;-70
2021/05/10 06:59:47;;;;;;;8.05;2.58;;;;;;;19.75;39.10;99925.81;1852407;77;22570;-70
2021/05/10 07:02:31;;;;;;;3.85;2.50;;;;;;;19.98;39.16;99924.91;1841567;77;22096;-70
2021/05/10 07:05:16;;;;;;;5.12;2.02;;;;;;;20.21;38.98;99928.84;1820424;77;22167;-70
2021/05/10 07:08:09;;;;;;;3.33;1.77;;;;;;;20.26;38.77;99934.35;1811067;78;22700;-70
2021/05/10 07:10:51;;;;;;;7.65;3.85;;;;;;;20.41;38.65;99931.91;1811403;78;22499;-70
2021/05/10 07:13:30;;;;;;;23.27;9.43;;;;;;;20.69;38.55;99935.64;1828041;77;22449;-70
2021/05/10 07:16:10;;;;;;;54.77;27.55;;;;;;;20.70;38.13;99931.84;1803677;77;22467;-70
2021/05/10 07:21:54;;;;;;;3.58;1.80;;;;;;;20.90;37.64;99928.90;1764718;77;22845;-70
2021/05/10 07:24:33;;;;;;;5.33;1.50;;;;;;;21.06;37.62;99919.64;1811420;78;22655;-70
2021/05/10 07:27:12;;;;;;;3.98;2.00;;;;;;;21.20;37.54;99921.77;1815886;77;22322;-68
2021/05/10 07:29:53;;;;;;;6.83;1.67;;;;;;;21.29;37.45;99922.97;1811173;78;22701;-70
2021/05/10 07:32:32;;;;;;;4.20;1.55;;;;;;;21.14;36.77;99920.08;1802776;77;22529;-70
2021/05/10 07:35:11;;;;;;;6.40;1.70;;;;;;;21.23;36.74;99921.27;1808455;77;22311;-69
2021/05/10 07:37:49;;;;;;;7.85;2.15;;;;;;;21.40;36.37;99909.83;1815985;77;22455;-69
2021/05/10 07:40:35;;;;;;;3.30;1.42;;;;;;;21.59;36.43;99908.15;1830554;77;22521;-70
2021/05/10 07:43:14;;;;;;;2.92;1.67;;;;;;;21.94;36.48;99914.01;1815885;77;22472;-70
2021/05/10 07:45:53;;;;;;;4.65;2.22;;;;;;;22.00;36.31;99908.08;1804962;77;22494;-70
2021/05/10 07:48:35;;;;;;;4.83;2.08;;;;;;;22.12;36.15;99894.63;1830810;77;22577;-70
2021/05/10 07:51:21;;;;;;;5.47;1.98;;;;;;;21.98;35.61;99893.41;1789578;78;28571;-70
2021/05/10 07:54:01;;;;;;;4.10;1.82;;;;;;;22.12;35.26;99894.63;1838340;77;22088;-70
2021/05/10 07:56:40;;;;;;;2.98;1.55;;;;;;;22.02;34.84;99899.98;1811224;77;22460;-71
2021/05/10 07:59:20;;;;;;;3.65;1.98;;;;;;;21.97;34.64;99897.20;1803479;77;23069;-71
2021/05/10 08:02:00;;;;;;;2.70;1.40;;;;;;;22.07;34.76;99905.44;1797898;77;22886;-71
2021/05/10 08:04:41;;;;;;;5.47;2.77;;;;;;;22.34;34.95;99898.08;1802331;77;22513;-71
2021/05/10 08:07:19;;;;;;;4.92;2.62;;;;;;;22.37;34.77;99892.15;1852637;77;22242;-71
2021/05/10 08:09:59;;;;;;;6.85;1.95;;;;;;;22.55;34.78;99905.05;1826013;77;22380;-70
2021/05/10 08:12:39;;;;;;;7.40;1.52;;;;;;;22.50;34.20;99905.83;1835822;77;22590;-71
2021/05/10 08:15:25;;;;;;;2.22;1.40;;;;;;;22.47;33.91;99906.34;1792392;78;22450;-71
2021/05/10 08:18:05;;;;;;;3.45;1.50;;;;;;;22.77;34.13;99912.56;1798730;77;22994;-71
2021/05/10 08:20:44;;;;;;;6.22;1.85;;;;;;;22.99;34.22;99915.98;1802102;77;22398;-71
2021/05/10 08:23:23;;;;;;;6.55;1.65;;;;;;;23.00;34.09;99912.20;1784601;77;22713;-71
2021/05/10 08:26:02;;;;;;;11.25;2.22;;;;;;;22.96;34.16;99920.59;1804996;79;22624;-71
2021/05/10 08:28:41;;;;;;;2.77;1.55;;;;;;;22.88;34.07;99919.72;1797727;79;22438;-72
2021/05/10 08:31:19;;;;;;;3.80;2.05;;;;;;;22.89;34.03;99918.64;1846100;77;22699;-71
2021/05/10 08:33:59;;;;;;;4.97;1.60;;;;;;;22.88;34.23;99920.55;1803278;78;23269;-70
2021/05/10 08:36:38;;;;;;;2.52;1.60;;;;;;;22.96;34.35;99913.80;1852460;77;22046;-71
2021/05/10 08:39:16;;;;;;;2.65;1.35;;;;;;;22.93;34.30;99918.94;1797987;77;22399;-71
2021/05/10 08:41:57;;;;;;;3.55;1.60;;;;;;;22.73;34.31;99919.63;1800343;78;22536;-68
2021/05/10 08:44:36;;;;;;;11.68;2.58;;;;;;;22.53;34.35;99927.58;1834081;77;22346;-70
2021/05/10 08:47:22;;;;;;;4.40;1.92;;;;;;;22.63;34.64;99922.22;1839444;77;22278;-68
2021/05/10 08:50:00;;;;;;;6.35;2.00;;;;;;;22.79;34.68;99921.30;1799866;77;22151;-68
2021/05/10 08:55:22;;;;;;;3.65;1.92;;;;;;;22.66;34.72;99914.36;1794053;77;22701;-70
2021/05/10 08:58:03;;;;;;;6.42;1.70;;;;;;;22.62;34.72;99916.53;1811692;77;22899;-70
2021/05/10 09:00:51;;;;;;;2.33;1.82;;;;;;;22.61;34.67;99926.58;1800052;77;22684;-70
2021/05/10 09:06:30;;;;;;;5.53;2.12;;;;;;;23.01;34.88;99921.18;1792106;77;22316;-68
2021/05/10 09:09:10;;;;;;;2.58;1.82;;;;;;;22.92;34.78;99914.04;1801408;77;22329;-68
2021/05/10 09:11:53;;;;;;;6.85;1.98;;;;;;;23.12;34.94;99919.59;1800827;78;22619;-70
2021/05/10 09:14:34;;;;;;;8.33;1.65;;;;;;;23.19;34.92;99911.19;1834657;77;22704;-70
2021/05/10 09:17:13;;;;;;;3.08;1.95;;;;;;;23.25;34.84;99902.81;1788298;77;23036;-68
2021/05/10 09:19:59;;;;;;;7.03;1.80;;;;;;;23.51;35.02;99911.92;1777279;78;27976;-71
2021/05/10 09:22:55;;;;;;;7.12;1.40;;;;;;;23.74;34.80;99912.02;1832549;77;22938;-71
2021/05/10 09:25:36;;;;;;;4.35;1.52;;;;;;;23.88;34.81;99906.33;1815578;77;22706;-71
2021/05/10 09:28:22;;;;;;;2.95;1.30;;;;;;;23.85;34.83;99898.12;1815799;77;22384;-71
2021/05/10 09:31:10;;;;;;;4.97;1.87;;;;;;;23.83;34.91;99894.05;1852213;77;22324;-71
2021/05/10 09:33:49;;;;;;;6.08;1.55;;;;;;;23.78;34.93;99893.52;1815783;77;23374;-68
2021/05/10 09:36:37;;;;;;;4.58;1.45;;;;;;;23.89;35.03;99899.77;1815847;77;22325;-71
2021/05/10 09:39:28;;;;;;;8.18;1.70;;;;;;;23.98;35.04;99891.36;1811167;78;22368;-71
2021/05/10 09:42:07;;;;;;;3.55;1.42;;;;;;;24.08;34.85;99900.91;1810918;78;22808;-71
2021/05/10 09:44:46;;;;;;;8.78;2.45;;;;;;;24.05;34.73;99897.38;1852474;77;22735;-71
2021/05/10 09:47:33;;;;;;;4.42;2.45;;;;;;;23.98;34.54;99898.17;1815900;77;22403;-71
2021/05/10 09:50:07;;;;;;;18.62;2.83;;;;;;;24.03;34.47;99889.99;1852345;77;22163;-71
2021/05/10 09:52:46;;;;;;;7.65;2.42;;;;;;;24.19;34.41;99887.61;1815819;77;22043;-71
2021/05/10 09:55:55;;;;;;;5.30;1.72;;;;;;;24.13;34.01;99888.70;1815597;77;23064;-71
2021/05/10 09:58:41;;;;;;;6.28;1.40;;;;;;;24.09;33.83;99893.02;1852422;77;22168;-71
2021/05/10 10:01:21;;;;;;;5.83;1.70;;;;;;;24.24;34.01;99902.59;1800457;77;27845;-68
2021/05/10 10:04:07;;;;;;;4.33;2.13;;;;;;;24.55;33.90;99917.60;1836309;77;27864;-71
2021/05/10 10:06:47;;;;;;;4.05;1.42;;;;;;;24.95;33.86;99923.03;1852686;77;22341;-68
2021/05/10 10:09:26;;;;;;;6.50;2.60;;;;;;;25.17;33.98;99921.35;1811210;78;23990;-71
2021/05/10 10:12:05;;;;;;;7.30;2.77;;;;;;;25.25;34.13;99918.88;1811406;78;22383;-71
2021/05/10 10:14:44;;;;;;;5.03;2.40;;;;;;;25.49;34.15;99920.42;1816000;77;22322;-68
2021/05/10 10:17:25;;;;;;;6.47;1.85;;;;;;;25.21;33.70;99917.80;1811422;78;22977;-71
2021/05/10 10:20:08;;;;;;;5.97;2.10;;;;;;;24.97;33.38;99922.77;1811263;78;23091;-71
2021/05/10 10:22:48;;;;;;;4.95;2.10;;;;;;;24.83;33.36;99932.07;1811527;77;22407;-71
2021/05/10 10:25:26;;;;;;;8.38;2.00;;;;;;;24.70;33.40;99925.22;1852672;77;22516;-68
2021/05/10 10:28:05;;;;;;;3.33;1.82;;;;;;;24.90;33.59;99916.23;1816285;77;22413;-69
2021/05/10 10:31:05;;;;;;;7.25;2.10;;;;;;;25.12;33.71;99917.29;1816104;77;22131;-71
2021/05/10 10:33:48;;;;;;;4.37;1.75;;;;;;;25.14;33.43;99917.27;1852575;77;22411;-68
2021/05/10 10:36:35;;;;;;;3.40;1.70;;;;;;;25.14;33.45;99915.91;1811503;78;22931;-71
2021/05/10 10:39:22;;;;;;;6.13;1.63;;;;;;;25.03;33.13;99904.74;1836825;77;27833;-71
2021/05/10 10:42:12;;;;;;;4.20;2.25;;;;;;;25.29;33.29;99898.12;1858538;77;21885;-71
2021/05/10 10:44:59;;;;;;;3.02;1.85;;;;;;;25.56;33.62;99901.86;1816143;77;22125;-68
2021/05/10 10:47:43;;;;;;;6.67;1.87;;;;;;;25.71;33.66;99899.60;1815802;77;22720;-68
2021/05/10 10:50:24;;;;;;;9.13;4.37;;;;;;;25.52;33.33;99897.22;1811400;78;23257;-69
2021/05/10 10:53:08;;;;;;;3.77;1.92;;;;;;;25.45;33.28;99898.86;1852533;77;22613;-71
2021/05/10 10:55:55;;;;;;;5.60;2.20;;;;;;;25.53;33.37;99892.86;1852254;77;22263;-71
2021/05/10 10:58:43;;;;;;;3.33;1.70;;;;;;;25.64;33.41;99892.27;1852694;77;22265;-71
2021/05/10 11:01:27;;;;;;;5.80;1.70;;;;;;;25.81;33.51;99894.90;1811086;78;22823;-71
2021/05/10 11:04:29;;;;;;;3.12;1.20;;;;;;;25.93;33.48;99897.84;1815679;77;21980;-68
2021/05/10 11:07:09;;;;;;;5.40;2.22;;;;;;;25.91;33.42;99891.28;1813344;77;22390;-69
2021/05/10 11:09:50;;;;;;;7.60;2.47;;;;;;;25.90;33.40;99893.73;1815935;77;23116;-69
2021/05/10 11:12:54;;;;;;;15.38;6.72;;;;;;;25.71;33.17;99896.33;1836495;77;28028;-71
2021/05/10 11:15:41;;;;;;;6.60;1.75;;;;;;;25.61;32.87;99894.20;1852715;77;22836;-70
2021/05/10 11:18:49;;;;;;;3.80;1.70;;;;;;;25.44;32.99;99899.16;1815782;77;22751;-71
2021/05/10 11:21:34;;;;;;;2.37;1.37;;;;;;;25.47;33.10;99904.06;1815908;77;22363;-68
2021/05/10 11:24:13;;;;;;;3.72;1.30;;;;;;;25.69;33.31;99907.24;1815883;77;22416;-69
2021/05/10 11:26:52;;;;;;;3.00;1.40;;;;;;;25.95;33.28;99895.08;1852718;77;22347;-68
2021/05/10 11:29:42;;;;;;;7.33;1.40;;;;;;;26.13;33.18;99899.88;1815967;77;22208;-68
2021/05/10 11:32:28;;;;;;;2.05;1.12;;;;;;;26.25;33.01;99889.97;1852035;77;22424;-68
2021/05/10 11:35:24;;;;;;;2.33;1.07;;;;;;;26.25;32.99;99877.12;1816112;77;22403;-69
2021/05/10 11:38:06;;;;;;;7.33;2.60;;;;;;;26.38;32.83;99883.05;1816213;77;23154;-69
2021/05/10 11:40:48;;;;;;;6.42;1.42;;;;;;;26.23;32.51;99874.41;1815639;77;23178;-68
2021/05/10 11:43:26;;;;;;;5.90;1.80;;;;;;;26.37;32.73;99874.02;1816159;77;22442;-69
2021/05/10 11:46:05;;;;;;;3.65;1.25;;;;;;;26.56;32.79;99878.24;1816026;77;22269;-69
2021/05/10 11:48:44;;;;;;;6.50;2.62;;;;;;;26.51;32.88;99871.44;1811421;78;22472;-68
2021/05/10 11:51:23;;;;;;;5.25;1.62;;;;;;;26.37;32.76;99877.30;1852557;77;22338;-68
2021/05/10 11:54:05;;;;;;;4.17;1.77;;;;;;;26.38;32.80;99874.84;1852606;77;22367;-69
2021/05/10 11:56:46;;;;;;;2.40;1.40;;;;;;;26.51;32.78;99876.91;1815837;77;21980;-68
2021/05/10 12:02:27;;;;;;;4.83;2.30;;;;;;;26.57;32.45;99881.22;1852468;77;22413;-69
2021/05/10 12:05:07;;;;;;;2.42;1.17;;;;;;;26.67;32.34;99882.52;1811343;77;22542;-69
2021/05/10 12:07:52;;;;;;;6.10;3.00;;;;;;;26.68;32.16;99879.48;1836692;77;27857;-71
2021/05/10 12:10:32;;;;;;;5.62;1.22;;;;;;;26.59;31.25;99876.30;1815852;77;22149;-71
2021/05/10 12:13:11;;;;;;;7.35;2.77;;;;;;;26.75;31.62;99876.40;1811524;78;22558;-71
2021/05/10 12:15:50;;;;;;;4.28;1.98;;;;;;;26.83;31.67;99877.18;1842604;77;22489;-68
2021/05/10 12:18:29;;;;;;;7.08;2.25;;;;;;;26.82;31.70;99881.02;1852670;77;22518;-69
2021/05/10 12:21:17;;;;;;;4.65;1.40;;;;;;;26.77;31.53;99871.47;1815937;77;22769;-69
2021/05/10 12:24:06;;;;;;;5.97;1.98;;;;;;;26.83;31.60;99878.55;1852436;77;22832;-68
2021/05/10 12:26:47;;;;;;;5.20;2.08;;;;;;;26.79;31.30;99873.35;1811412;78;22438;-69
2021/05/10 12:29:25;;;;;;;6.95;1.75;;;;;;;26.71;31.27;99868.50;1816132;77;22673;-69
2021/05/10 12:32:05;;;;;;;4.55;1.87;;;;;;;26.78;31.38;99861.59;1852662;77;22317;-71
2021/05/10 12:34:44;;;;;;;6.87;1.35;;;;;;;26.95;31.55;99857.05;1816169;77;22159;-71
2021/05/10 12:37:23;;;;;;;7.53;2.02;;;;;;;27.12;31.67;99842.38;1815913;77;22398;-71
2021/05/10 12:40:06;;;;;;;7.78;2.90;;;;;;;27.26;31.78;99831.52;1852650;77;23048;-71
2021/05/10 12:43:07;;;;;;;4.55;2.37;;;;;;;27.27;31.76;99821.62;1815617;77;22395;-71
2021/05/10 12:45:59;;;;;;;7.45;3.35;;;;;;;27.24;31.71;99826.32;1852589;77;22811;-69
2021/05/10 12:48:43;;;;;;;3.27;1.77;;;;;;;27.13;31.43;99830.28;1852596;77;22277;-68
2021/05/10 12:51:26;;;;;;;5.28;2.65;;;;;;;27.07;31.26;99834.20;1852559;77;21981;-68
2021/05/10 12:54:07;;;;;;;4.10;1.62;;;;;;;27.15;31.45;99841.78;1811340;78;22426;-71